Saturday, November 01, 2014
07:43 UTC
  |  Log In   |  Register Free
Airport Search:

Big Bear City Airport
(KL35)

Big Bear City Airport Diagram
No Airport Diagram Available

FAA data valid effective September 18, 2014 - November 13, 2014 (unless otherwise noted).

 
 
 
 
 
 
 
 
 
 
 
 
 
 

Current Aviation Weather for Big Bear City Airport (KL35)

The most recent METAR observation for KL35 was updated at: 0719
METAR Summary (Translated METAR)
KL35
010655Z AUTO 22014G25KT 184V244 7SM SCT008 SCT014 05/03 A2991 RMK AO2
KSBD
010250Z 00000KT 7SM OVC040 18/10 A2987
(21.4 nm SW from KL35)
KAPV
191256Z AUTO 05004KT 10SM FEW075 SCT090 BKN110 18/18 A2996 RMK AO2 SLP144 T01830178 $
(24.8 nm NW from KL35)
TAF
No TAF information found within 50 nm of KSBD
  Airport Weather Conditions for KL35

 Current Weather at L35
41° F
Partly Cloudy
Southwest winds at 16.1 mph
L35 NOAA Radar

Pressure: 29.91 in
Humidity: 87%
Wind: from the Southwest at 16.1 gusting to 28.8 MPH (14 gusting to 25 KT)
Dew Point: 37.4°F
Visibility: 7.00 mi


Airport Weather Forecast for KL35

Translated METAR and TAF for KSBD
Translated METAR for KSBD (0738 UTC 01 November 2014)
found at http://aviationweather.gov/adds/metars/
 
METAR text: KSBD 010250Z 00000KT 7SM OVC040 18/10 A2987
Conditions at: KSBD (SAN BERNARDINO , CA, US) observed 0250 UTC 01 November 2014
Temperature: 18.0°C (64°F)
Dewpoint: 10.0°C (50°F) [RH = 59%]
Pressure (altimeter): 29.87 inches Hg (1011.6 mb)
Winds: calm
Visibility: 7 miles (11 km)
Ceiling: 4000 feet AGL
Clouds: overcast cloud deck at 4000 feet AGL
Weather: no significant weather observed at this time
Translated TAF for KSBD

There is no translated TAF available for this airport

Find All Airport Services Find A Hotel Find A Rental Car Find A Golf Course Find A Restaurant $100 Hamburger



FBO's on the Field
FBO Company Facility Photos Services Transportation Aviation Fuel Prices: Prices include tax
Catering Weather Repair Courtesy Rental Type 100LL JetA JetA+ MOGAS 8087
 
Big Bear Airport

This FBO has not yet been rated
FS:Epic
Last Updated: Oct-24
Login to update fuel prices
SS:
Contact Big Bear AirportMore FBO Information
 
Add another FBO Facility Photos Catering Weather Repair Courtesy Rental Type 100LL JetA JetA+ MOGAS 8087
Services Transportation Aviation Fuel Prices: Prices include tax


model-print
model-print
model-print
model-print